sensor_id;sensor_type;location;lat;lon;timestamp;pressure;altitude;pressure_sealevel;temperature;humidity
30338;BME280;17143;51.888;5.408;2022-09-09T00:01:55;100595.00;;;17.01;99.45
30338;BME280;17143;51.888;5.408;2022-09-09T00:17:04;100587.41;;;16.79;100.00
30338;BME280;17143;51.888;5.408;2022-09-09T00:32:13;100574.59;;;16.57;100.00
30338;BME280;17143;51.888;5.408;2022-09-09T00:47:30;100567.94;;;16.38;100.00
30338;BME280;17143;51.888;5.408;2022-09-09T01:02:42;100570.09;;;16.21;100.00
30338;BME280;17143;51.888;5.408;2022-09-09T01:17:54;100552.31;;;16.11;100.00
30338;BME280;17143;51.888;5.408;2022-09-09T01:33:00;100551.25;;;16.05;100.00
30338;BME280;17143;51.888;5.408;2022-09-09T01:48:03;100542.91;;;15.88;100.00
30338;BME280;17143;51.888;5.408;2022-09-09T02:03:24;100528.50;;;15.74;100.00
30338;BME280;17143;51.888;5.408;2022-09-09T02:18:40;100528.22;;;15.65;100.00
30338;BME280;17143;51.888;5.408;2022-09-09T02:33:49;100513.94;;;15.54;100.00
30338;BME280;17143;51.888;5.408;2022-09-09T02:48:59;100510.97;;;15.45;100.00
30338;BME280;17143;51.888;5.408;2022-09-09T03:04:05;100525.63;;;15.37;100.00
30338;BME280;17143;51.888;5.408;2022-09-09T03:19:08;100512.31;;;15.31;100.00
30338;BME280;17143;51.888;5.408;2022-09-09T03:34:10;100529.84;;;15.32;100.00
30338;BME280;17143;51.888;5.408;2022-09-09T03:49:12;100525.28;;;15.24;100.00
30338;BME280;17143;51.888;5.408;2022-09-09T04:04:14;100520.75;;;15.20;100.00
30338;BME280;17143;51.888;5.408;2022-09-09T04:19:16;100497.22;;;15.23;100.00
30338;BME280;17143;51.888;5.408;2022-09-09T04:34:19;100499.03;;;15.24;100.00
30338;BME280;17143;51.888;5.408;2022-09-09T04:49:21;100481.66;;;15.30;100.00
30338;BME280;17143;51.888;5.408;2022-09-09T05:04:24;100484.28;;;15.30;100.00
30338;BME280;17143;51.888;5.408;2022-09-09T05:19:26;100479.97;;;15.32;100.00
30338;BME280;17143;51.888;5.408;2022-09-09T05:34:30;100462.81;;;15.43;100.00
30338;BME280;17143;51.888;5.408;2022-09-09T05:49:33;100468.19;;;15.77;100.00
30338;BME280;17143;51.888;5.408;2022-09-09T06:04:35;100485.25;;;15.94;100.00
30338;BME280;17143;51.888;5.408;2022-09-09T06:19:38;100491.25;;;16.54;100.00
30338;BME280;17143;51.888;5.408;2022-09-09T06:34:40;100479.66;;;20.82;95.92
30338;BME280;17143;51.888;5.408;2022-09-09T06:49:42;100477.28;;;21.24;84.38
30338;BME280;17143;51.888;5.408;2022-09-09T07:04:46;100479.03;;;21.21;82.78
30338;BME280;17143;51.888;5.408;2022-09-09T07:19:48;100469.03;;;20.79;83.69
30338;BME280;17143;51.888;5.408;2022-09-09T07:34:51;100476.63;;;23.34;74.85
30338;BME280;17143;51.888;5.408;2022-09-09T07:49:53;100491.19;;;20.95;79.18
30338;BME280;17143;51.888;5.408;2022-09-09T08:05:01;100477.53;;;20.36;84.65
30338;BME280;17143;51.888;5.408;2022-09-09T08:20:05;100491.56;;;19.51;88.10
30338;BME280;17143;51.888;5.408;2022-09-09T08:35:08;100497.75;;;19.51;88.46
30338;BME280;17143;51.888;5.408;2022-09-09T08:50:19;100515.66;;;19.12;88.94
30338;BME280;17143;51.888;5.408;2022-09-09T09:05:31;100514.59;;;18.98;89.76
30338;BME280;17143;51.888;5.408;2022-09-09T09:20:42;100520.09;;;19.13;89.69
30338;BME280;17143;51.888;5.408;2022-09-09T09:35:50;100520.22;;;19.22;89.98
30338;BME280;17143;51.888;5.408;2022-09-09T09:50:54;100527.16;;;19.17;88.85
30338;BME280;17143;51.888;5.408;2022-09-09T10:05:57;100511.31;;;19.17;88.75
30338;BME280;17143;51.888;5.408;2022-09-09T10:21:03;100531.66;;;18.65;95.72
30338;BME280;17143;51.888;5.408;2022-09-09T10:36:12;100533.03;;;18.96;99.73
30338;BME280;17143;51.888;5.408;2022-09-09T10:51:30;100529.22;;;21.01;91.62
30338;BME280;17143;51.888;5.408;2022-09-09T11:06:37;100517.69;;;20.01;93.50
30338;BME280;17143;51.888;5.408;2022-09-09T11:21:44;100515.81;;;20.76;88.82
30338;BME280;17143;51.888;5.408;2022-09-09T11:37:08;100511.09;;;20.43;90.08
30338;BME280;17143;51.888;5.408;2022-09-09T11:52:21;100501.31;;;20.34;90.50
30338;BME280;17143;51.888;5.408;2022-09-09T12:07:31;100508.00;;;20.00;92.40
30338;BME280;17143;51.888;5.408;2022-09-09T12:22:44;100506.88;;;20.66;90.46
30338;BME280;17143;51.888;5.408;2022-09-09T12:37:50;100510.97;;;20.28;89.14
30338;BME280;17143;51.888;5.408;2022-09-09T12:52:56;100494.97;;;20.20;89.77
30338;BME280;17143;51.888;5.408;2022-09-09T13:08:03;100500.38;;;20.25;89.05
30338;BME280;17143;51.888;5.408;2022-09-09T13:23:05;100496.34;;;20.74;88.65
30338;BME280;17143;51.888;5.408;2022-09-09T13:38:13;100489.34;;;20.76;86.24
30338;BME280;17143;51.888;5.408;2022-09-09T13:53:16;100481.09;;;20.41;90.30
30338;BME280;17143;51.888;5.408;2022-09-09T14:08:24;100476.94;;;20.70;91.45
30338;BME280;17143;51.888;5.408;2022-09-09T14:23:26;100476.91;;;20.73;89.13
30338;BME280;17143;51.888;5.408;2022-09-09T14:38:30;100472.38;;;20.51;92.15
30338;BME280;17143;51.888;5.408;2022-09-09T14:53:33;100472.69;;;20.96;92.87
30338;BME280;17143;51.888;5.408;2022-09-09T15:08:35;100470.00;;;20.95;92.43
30338;BME280;17143;51.888;5.408;2022-09-09T15:23:38;100482.44;;;21.05;92.74
30338;BME280;17143;51.888;5.408;2022-09-09T15:38:40;100493.38;;;20.33;90.88
30338;BME280;17143;51.888;5.408;2022-09-09T15:53:42;100497.41;;;19.97;91.17
30338;BME280;17143;51.888;5.408;2022-09-09T16:08:45;100495.59;;;19.95;92.01
30338;BME280;17143;51.888;5.408;2022-09-09T16:23:49;100496.97;;;20.44;91.50
30338;BME280;17143;51.888;5.408;2022-09-09T16:38:53;100522.41;;;20.27;90.99
30338;BME280;17143;51.888;5.408;2022-09-09T16:53:58;100539.81;;;20.07;90.85
30338;BME280;17143;51.888;5.408;2022-09-09T17:09:02;100536.22;;;20.00;91.37
30338;BME280;17143;51.888;5.408;2022-09-09T17:24:04;100539.31;;;19.66;91.11
30338;BME280;17143;51.888;5.408;2022-09-09T17:39:07;100549.56;;;19.41;91.17
30338;BME280;17143;51.888;5.408;2022-09-09T17:54:10;100568.78;;;19.33;92.21
30338;BME280;17143;51.888;5.408;2022-09-09T18:09:14;100568.50;;;19.13;93.55
30338;BME280;17143;51.888;5.408;2022-09-09T18:24:19;100591.22;;;19.01;95.27
30338;BME280;17143;51.888;5.408;2022-09-09T18:39:22;100602.38;;;18.84;96.42
30338;BME280;17143;51.888;5.408;2022-09-09T18:54:27;100622.22;;;18.63;97.86
30338;BME280;17143;51.888;5.408;2022-09-09T19:09:31;100644.22;;;18.63;98.71
30338;BME280;17143;51.888;5.408;2022-09-09T19:24:33;100647.50;;;18.50;100.00
30338;BME280;17143;51.888;5.408;2022-09-09T19:39:35;100665.53;;;18.31;100.00
30338;BME280;17143;51.888;5.408;2022-09-09T19:54:37;100666.06;;;18.13;100.00
30338;BME280;17143;51.888;5.408;2022-09-09T20:09:39;100686.94;;;18.04;100.00
30338;BME280;17143;51.888;5.408;2022-09-09T20:24:41;100686.81;;;17.98;100.00
30338;BME280;17143;51.888;5.408;2022-09-09T20:39:43;100688.88;;;17.72;100.00
30338;BME280;17143;51.888;5.408;2022-09-09T20:54:45;100680.56;;;17.55;100.00
30338;BME280;17143;51.888;5.408;2022-09-09T21:09:47;100693.34;;;17.39;100.00
30338;BME280;17143;51.888;5.408;2022-09-09T21:24:49;100704.28;;;17.21;100.00
30338;BME280;17143;51.888;5.408;2022-09-09T21:39:51;100700.53;;;17.10;100.00
30338;BME280;17143;51.888;5.408;2022-09-09T21:54:53;100685.28;;;16.97;100.00
30338;BME280;17143;51.888;5.408;2022-09-09T22:09:55;100703.44;;;16.88;100.00
30338;BME280;17143;51.888;5.408;2022-09-09T22:24:57;100700.84;;;16.89;100.00
30338;BME280;17143;51.888;5.408;2022-09-09T22:39:59;100681.25;;;16.78;100.00
30338;BME280;17143;51.888;5.408;2022-09-09T22:55:01;100697.00;;;16.77;100.00
30338;BME280;17143;51.888;5.408;2022-09-09T23:10:03;100703.13;;;16.76;100.00
30338;BME280;17143;51.888;5.408;2022-09-09T23:25:07;100708.22;;;16.70;100.00
30338;BME280;17143;51.888;5.408;2022-09-09T23:40:09;100722.03;;;16.63;100.00
30338;BME280;17143;51.888;5.408;2022-09-09T23:55:11;100711.50;;;16.63;100.00
